sensor_id;sensor_type;location;lat;lon;timestamp;P1;durP1;ratioP1;P2;durP2;ratioP2
46090;SDS011;31826;53.572;10.170;2022-09-02T00:01:52;1.10;;;0.85;;
46090;SDS011;31826;53.572;10.170;2022-09-02T00:04:19;1.70;;;1.08;;
46090;SDS011;31826;53.572;10.170;2022-09-02T00:06:47;0.90;;;0.90;;
46090;SDS011;31826;53.572;10.170;2022-09-02T00:09:16;2.10;;;1.00;;
46090;SDS011;31826;53.572;10.170;2022-09-02T00:11:44;1.73;;;0.80;;
46090;SDS011;31826;53.572;10.170;2022-09-02T00:14:14;1.75;;;0.85;;
46090;SDS011;31826;53.572;10.170;2022-09-02T00:16:42;0.82;;;0.75;;
46090;SDS011;31826;53.572;10.170;2022-09-02T00:19:16;1.53;;;1.00;;
46090;SDS011;31826;53.572;10.170;2022-09-02T00:21:48;1.63;;;1.00;;
46090;SDS011;31826;53.572;10.170;2022-09-02T00:24:14;2.60;;;1.00;;
46090;SDS011;31826;53.572;10.170;2022-09-02T00:26:41;1.00;;;0.90;;
46090;SDS011;31826;53.572;10.170;2022-09-02T00:29:08;1.88;;;1.02;;
46090;SDS011;31826;53.572;10.170;2022-09-02T00:31:34;2.05;;;0.90;;
46090;SDS011;31826;53.572;10.170;2022-09-02T00:34:01;2.22;;;0.90;;
46090;SDS011;31826;53.572;10.170;2022-09-02T00:36:28;2.45;;;1.00;;
46090;SDS011;31826;53.572;10.170;2022-09-02T00:38:53;1.47;;;1.00;;
46090;SDS011;31826;53.572;10.170;2022-09-02T00:41:20;2.30;;;1.08;;
46090;SDS011;31826;53.572;10.170;2022-09-02T00:46:20;1.38;;;1.00;;
46090;SDS011;31826;53.572;10.170;2022-09-02T00:51:31;1.73;;;1.08;;
46090;SDS011;31826;53.572;10.170;2022-09-02T00:54:02;1.23;;;0.93;;
46090;SDS011;31826;53.572;10.170;2022-09-02T00:56:28;2.87;;;1.10;;
46090;SDS011;31826;53.572;10.170;2022-09-02T00:58:55;1.70;;;0.95;;
46090;SDS011;31826;53.572;10.170;2022-09-02T01:01:22;0.88;;;0.88;;
46090;SDS011;31826;53.572;10.170;2022-09-02T01:03:49;4.20;;;1.13;;
46090;SDS011;31826;53.572;10.170;2022-09-02T01:06:16;1.15;;;0.95;;
46090;SDS011;31826;53.572;10.170;2022-09-02T01:08:51;1.07;;;0.90;;
46090;SDS011;31826;53.572;10.170;2022-09-02T01:11:22;1.30;;;1.00;;
46090;SDS011;31826;53.572;10.170;2022-09-02T01:13:50;1.00;;;0.90;;
46090;SDS011;31826;53.572;10.170;2022-09-02T01:16:22;1.15;;;1.00;;
46090;SDS011;31826;53.572;10.170;2022-09-02T01:18:54;2.03;;;0.93;;
46090;SDS011;31826;53.572;10.170;2022-09-02T01:21:23;1.73;;;0.90;;
46090;SDS011;31826;53.572;10.170;2022-09-02T01:23:49;1.70;;;0.98;;
46090;SDS011;31826;53.572;10.170;2022-09-02T01:26:16;2.25;;;1.00;;
46090;SDS011;31826;53.572;10.170;2022-09-02T01:28:42;2.05;;;1.08;;
46090;SDS011;31826;53.572;10.170;2022-09-02T01:31:08;1.00;;;0.90;;
46090;SDS011;31826;53.572;10.170;2022-09-02T01:33:34;2.03;;;1.00;;
46090;SDS011;31826;53.572;10.170;2022-09-02T01:35:59;1.10;;;0.90;;
46090;SDS011;31826;53.572;10.170;2022-09-02T01:38:28;2.30;;;1.10;;
46090;SDS011;31826;53.572;10.170;2022-09-02T01:40:54;1.17;;;0.93;;
46090;SDS011;31826;53.572;10.170;2022-09-02T01:43:21;1.00;;;0.90;;
46090;SDS011;31826;53.572;10.170;2022-09-02T01:45:50;1.65;;;0.95;;
46090;SDS011;31826;53.572;10.170;2022-09-02T01:48:18;1.27;;;1.00;;
46090;SDS011;31826;53.572;10.170;2022-09-02T01:50:46;2.50;;;1.08;;
46090;SDS011;31826;53.572;10.170;2022-09-02T01:53:15;0.98;;;0.90;;
46090;SDS011;31826;53.572;10.170;2022-09-02T01:55:41;3.05;;;1.00;;
46090;SDS011;31826;53.572;10.170;2022-09-02T01:58:07;1.35;;;1.00;;
46090;SDS011;31826;53.572;10.170;2022-09-02T02:00:33;1.38;;;0.90;;
46090;SDS011;31826;53.572;10.170;2022-09-02T02:02:59;1.50;;;1.00;;
46090;SDS011;31826;53.572;10.170;2022-09-02T02:05:25;0.82;;;0.82;;
46090;SDS011;31826;53.572;10.170;2022-09-02T02:07:51;1.40;;;1.03;;
46090;SDS011;31826;53.572;10.170;2022-09-02T02:10:18;1.55;;;1.00;;
46090;SDS011;31826;53.572;10.170;2022-09-02T02:12:45;1.75;;;1.10;;
46090;SDS011;31826;53.572;10.170;2022-09-02T02:15:13;1.17;;;1.00;;
46090;SDS011;31826;53.572;10.170;2022-09-02T02:17:42;1.27;;;1.00;;
46090;SDS011;31826;53.572;10.170;2022-09-02T02:20:09;1.77;;;1.20;;
46090;SDS011;31826;53.572;10.170;2022-09-02T02:22:39;1.45;;;0.90;;
46090;SDS011;31826;53.572;10.170;2022-09-02T02:25:05;1.00;;;0.90;;
46090;SDS011;31826;53.572;10.170;2022-09-02T02:27:31;0.85;;;0.80;;
46090;SDS011;31826;53.572;10.170;2022-09-02T02:29:57;1.20;;;1.10;;
46090;SDS011;31826;53.572;10.170;2022-09-02T02:32:23;1.13;;;0.98;;
46090;SDS011;31826;53.572;10.170;2022-09-02T02:34:50;2.45;;;1.23;;
46090;SDS011;31826;53.572;10.170;2022-09-02T02:37:16;2.00;;;1.00;;
46090;SDS011;31826;53.572;10.170;2022-09-02T02:39:41;1.27;;;1.17;;
46090;SDS011;31826;53.572;10.170;2022-09-02T02:42:09;0.95;;;0.90;;
46090;SDS011;31826;53.572;10.170;2022-09-02T02:44:37;1.80;;;1.00;;
46090;SDS011;31826;53.572;10.170;2022-09-02T02:47:04;1.80;;;1.10;;
46090;SDS011;31826;53.572;10.170;2022-09-02T02:49:35;1.03;;;0.90;;
46090;SDS011;31826;53.572;10.170;2022-09-02T02:52:01;1.25;;;0.95;;
46090;SDS011;31826;53.572;10.170;2022-09-02T02:54:28;2.13;;;1.17;;
46090;SDS011;31826;53.572;10.170;2022-09-02T02:56:54;1.27;;;1.10;;
46090;SDS011;31826;53.572;10.170;2022-09-02T02:59:19;1.93;;;1.30;;
46090;SDS011;31826;53.572;10.170;2022-09-02T03:01:45;3.10;;;1.20;;
46090;SDS011;31826;53.572;10.170;2022-09-02T03:04:11;2.10;;;1.00;;
46090;SDS011;31826;53.572;10.170;2022-09-02T03:06:37;1.87;;;1.10;;
46090;SDS011;31826;53.572;10.170;2022-09-02T03:09:03;1.60;;;1.00;;
46090;SDS011;31826;53.572;10.170;2022-09-02T03:11:29;2.22;;;1.00;;
46090;SDS011;31826;53.572;10.170;2022-09-02T03:13:56;2.83;;;1.20;;
46090;SDS011;31826;53.572;10.170;2022-09-02T03:16:22;3.42;;;1.10;;
46090;SDS011;31826;53.572;10.170;2022-09-02T03:18:49;2.30;;;1.00;;
46090;SDS011;31826;53.572;10.170;2022-09-02T03:21:15;4.07;;;1.20;;
46090;SDS011;31826;53.572;10.170;2022-09-02T03:23:42;2.30;;;1.20;;
46090;SDS011;31826;53.572;10.170;2022-09-02T03:26:10;1.95;;;1.10;;
46090;SDS011;31826;53.572;10.170;2022-09-02T03:28:37;0.93;;;0.90;;
46090;SDS011;31826;53.572;10.170;2022-09-02T03:31:03;2.53;;;1.08;;
46090;SDS011;31826;53.572;10.170;2022-09-02T03:33:30;3.75;;;1.25;;
46090;SDS011;31826;53.572;10.170;2022-09-02T03:35:56;1.88;;;1.00;;
46090;SDS011;31826;53.572;10.170;2022-09-02T03:38:22;1.10;;;1.00;;
46090;SDS011;31826;53.572;10.170;2022-09-02T03:40:48;1.38;;;1.05;;
46090;SDS011;31826;53.572;10.170;2022-09-02T03:43:14;1.83;;;1.20;;
46090;SDS011;31826;53.572;10.170;2022-09-02T03:45:40;3.53;;;1.20;;
46090;SDS011;31826;53.572;10.170;2022-09-02T03:48:07;2.17;;;1.20;;
46090;SDS011;31826;53.572;10.170;2022-09-02T03:50:36;1.25;;;1.08;;
46090;SDS011;31826;53.572;10.170;2022-09-02T03:53:04;1.50;;;1.00;;
46090;SDS011;31826;53.572;10.170;2022-09-02T03:55:31;1.50;;;1.20;;
46090;SDS011;31826;53.572;10.170;2022-09-02T03:57:57;1.73;;;1.17;;
46090;SDS011;31826;53.572;10.170;2022-09-02T04:00:24;2.17;;;1.20;;
46090;SDS011;31826;53.572;10.170;2022-09-02T04:02:53;4.72;;;1.20;;
46090;SDS011;31826;53.572;10.170;2022-09-02T04:05:19;1.42;;;1.17;;
46090;SDS011;31826;53.572;10.170;2022-09-02T04:07:46;4.75;;;1.52;;
46090;SDS011;31826;53.572;10.170;2022-09-02T04:10:14;1.30;;;1.10;;
46090;SDS011;31826;53.572;10.170;2022-09-02T04:12:40;1.98;;;1.20;;
46090;SDS011;31826;53.572;10.170;2022-09-02T04:15:06;2.22;;;1.30;;
46090;SDS011;31826;53.572;10.170;2022-09-02T04:17:37;1.52;;;1.20;;
46090;SDS011;31826;53.572;10.170;2022-09-02T04:20:05;2.65;;;1.30;;
46090;SDS011;31826;53.572;10.170;2022-09-02T04:22:32;2.33;;;1.30;;
46090;SDS011;31826;53.572;10.170;2022-09-02T04:24:58;2.00;;;1.25;;
46090;SDS011;31826;53.572;10.170;2022-09-02T04:27:24;1.48;;;1.20;;
46090;SDS011;31826;53.572;10.170;2022-09-02T04:29:50;2.70;;;1.42;;
46090;SDS011;31826;53.572;10.170;2022-09-02T04:32:16;2.35;;;1.17;;
46090;SDS011;31826;53.572;10.170;2022-09-02T04:34:42;1.45;;;1.13;;
46090;SDS011;31826;53.572;10.170;2022-09-02T04:37:08;2.70;;;1.40;;
46090;SDS011;31826;53.572;10.170;2022-09-02T04:39:33;1.98;;;1.20;;
46090;SDS011;31826;53.572;10.170;2022-09-02T04:41:59;1.53;;;1.10;;
46090;SDS011;31826;53.572;10.170;2022-09-02T04:44:25;1.50;;;1.20;;
46090;SDS011;31826;53.572;10.170;2022-09-02T04:46:51;1.97;;;1.20;;
46090;SDS011;31826;53.572;10.170;2022-09-02T04:49:17;2.10;;;1.20;;
46090;SDS011;31826;53.572;10.170;2022-09-02T04:51:42;2.35;;;1.30;;
46090;SDS011;31826;53.572;10.170;2022-09-02T04:54:08;2.47;;;1.30;;
46090;SDS011;31826;53.572;10.170;2022-09-02T04:56:34;2.85;;;2.05;;
46090;SDS011;31826;53.572;10.170;2022-09-02T04:59:02;4.43;;;1.37;;
46090;SDS011;31826;53.572;10.170;2022-09-02T05:01:29;2.33;;;1.20;;
46090;SDS011;31826;53.572;10.170;2022-09-02T05:03:57;4.05;;;1.30;;
46090;SDS011;31826;53.572;10.170;2022-09-02T05:06:24;2.85;;;1.67;;
46090;SDS011;31826;53.572;10.170;2022-09-02T05:08:52;4.70;;;1.50;;
46090;SDS011;31826;53.572;10.170;2022-09-02T05:11:20;2.08;;;1.23;;
46090;SDS011;31826;53.572;10.170;2022-09-02T05:13:48;2.70;;;1.40;;
46090;SDS011;31826;53.572;10.170;2022-09-02T05:16:19;3.17;;;1.30;;
46090;SDS011;31826;53.572;10.170;2022-09-02T05:18:47;2.38;;;1.33;;
46090;SDS011;31826;53.572;10.170;2022-09-02T05:21:14;2.20;;;1.30;;
46090;SDS011;31826;53.572;10.170;2022-09-02T05:23:40;2.55;;;1.30;;
46090;SDS011;31826;53.572;10.170;2022-09-02T05:26:07;3.08;;;1.40;;
46090;SDS011;31826;53.572;10.170;2022-09-02T05:28:36;3.88;;;1.50;;
46090;SDS011;31826;53.572;10.170;2022-09-02T05:31:04;2.30;;;1.45;;
46090;SDS011;31826;53.572;10.170;2022-09-02T05:33:32;2.93;;;1.30;;
46090;SDS011;31826;53.572;10.170;2022-09-02T05:36:02;2.75;;;1.55;;
46090;SDS011;31826;53.572;10.170;2022-09-02T05:38:29;2.80;;;1.40;;
46090;SDS011;31826;53.572;10.170;2022-09-02T05:40:55;3.07;;;1.30;;
46090;SDS011;31826;53.572;10.170;2022-09-02T05:43:23;1.85;;;1.30;;
46090;SDS011;31826;53.572;10.170;2022-09-02T05:45:49;2.33;;;1.35;;
46090;SDS011;31826;53.572;10.170;2022-09-02T05:48:15;1.63;;;1.25;;
46090;SDS011;31826;53.572;10.170;2022-09-02T05:51:02;2.60;;;1.10;;
46090;SDS011;31826;53.572;10.170;2022-09-02T05:53:29;2.70;;;1.33;;
46090;SDS011;31826;53.572;10.170;2022-09-02T05:55:56;2.05;;;1.30;;
46090;SDS011;31826;53.572;10.170;2022-09-02T05:58:23;3.63;;;1.27;;
46090;SDS011;31826;53.572;10.170;2022-09-02T06:00:49;3.60;;;1.42;;
46090;SDS011;31826;53.572;10.170;2022-09-02T06:03:15;3.70;;;1.30;;
46090;SDS011;31826;53.572;10.170;2022-09-02T06:05:52;2.25;;;1.27;;
46090;SDS011;31826;53.572;10.170;2022-09-02T06:08:22;2.92;;;1.25;;
46090;SDS011;31826;53.572;10.170;2022-09-02T06:10:48;5.10;;;1.30;;
46090;SDS011;31826;53.572;10.170;2022-09-02T06:13:14;1.93;;;1.20;;
46090;SDS011;31826;53.572;10.170;2022-09-02T06:15:42;2.70;;;1.10;;
46090;SDS011;31826;53.572;10.170;2022-09-02T06:18:09;1.55;;;1.23;;
46090;SDS011;31826;53.572;10.170;2022-09-02T06:20:38;1.92;;;1.02;;
46090;SDS011;31826;53.572;10.170;2022-09-02T06:23:08;2.33;;;1.20;;
46090;SDS011;31826;53.572;10.170;2022-09-02T06:25:38;2.03;;;1.10;;
46090;SDS011;31826;53.572;10.170;2022-09-02T06:28:05;3.45;;;1.10;;
46090;SDS011;31826;53.572;10.170;2022-09-02T06:30:31;2.80;;;1.10;;
46090;SDS011;31826;53.572;10.170;2022-09-02T06:32:57;1.73;;;1.20;;
46090;SDS011;31826;53.572;10.170;2022-09-02T06:35:23;1.65;;;1.20;;
46090;SDS011;31826;53.572;10.170;2022-09-02T06:37:49;1.70;;;1.10;;
46090;SDS011;31826;53.572;10.170;2022-09-02T06:40:15;3.80;;;1.10;;
46090;SDS011;31826;53.572;10.170;2022-09-02T06:42:43;2.15;;;1.00;;
46090;SDS011;31826;53.572;10.170;2022-09-02T06:45:09;1.92;;;1.20;;
46090;SDS011;31826;53.572;10.170;2022-09-02T06:47:35;2.72;;;1.13;;
46090;SDS011;31826;53.572;10.170;2022-09-02T06:50:01;6.95;;;1.38;;
46090;SDS011;31826;53.572;10.170;2022-09-02T06:52:27;1.33;;;1.00;;
46090;SDS011;31826;53.572;10.170;2022-09-02T06:54:53;1.33;;;1.05;;
46090;SDS011;31826;53.572;10.170;2022-09-02T06:57:19;3.30;;;1.20;;
46090;SDS011;31826;53.572;10.170;2022-09-02T06:59:45;1.40;;;0.95;;
46090;SDS011;31826;53.572;10.170;2022-09-02T07:02:11;1.48;;;1.10;;
46090;SDS011;31826;53.572;10.170;2022-09-02T07:04:38;1.90;;;1.00;;
46090;SDS011;31826;53.572;10.170;2022-09-02T07:07:23;1.30;;;1.00;;
46090;SDS011;31826;53.572;10.170;2022-09-02T07:09:48;4.60;;;1.00;;
46090;SDS011;31826;53.572;10.170;2022-09-02T07:12:14;1.70;;;1.00;;
46090;SDS011;31826;53.572;10.170;2022-09-02T07:14:42;2.47;;;1.30;;
46090;SDS011;31826;53.572;10.170;2022-09-02T07:17:08;1.23;;;0.90;;
46090;SDS011;31826;53.572;10.170;2022-09-02T07:19:36;1.95;;;1.10;;
46090;SDS011;31826;53.572;10.170;2022-09-02T07:22:05;2.80;;;1.17;;
46090;SDS011;31826;53.572;10.170;2022-09-02T07:24:31;1.13;;;1.02;;
46090;SDS011;31826;53.572;10.170;2022-09-02T07:26:57;2.25;;;1.02;;
46090;SDS011;31826;53.572;10.170;2022-09-02T07:29:24;3.10;;;1.00;;
46090;SDS011;31826;53.572;10.170;2022-09-02T07:31:50;1.80;;;0.90;;
46090;SDS011;31826;53.572;10.170;2022-09-02T07:34:16;1.58;;;0.90;;
46090;SDS011;31826;53.572;10.170;2022-09-02T07:36:42;1.20;;;0.93;;
46090;SDS011;31826;53.572;10.170;2022-09-02T07:39:10;0.90;;;0.80;;
46090;SDS011;31826;53.572;10.170;2022-09-02T07:41:36;1.13;;;1.00;;
46090;SDS011;31826;53.572;10.170;2022-09-02T07:44:04;2.60;;;0.90;;
46090;SDS011;31826;53.572;10.170;2022-09-02T07:46:30;1.02;;;0.90;;
46090;SDS011;31826;53.572;10.170;2022-09-02T07:49:00;1.03;;;0.80;;
46090;SDS011;31826;53.572;10.170;2022-09-02T07:51:28;1.40;;;0.90;;
46090;SDS011;31826;53.572;10.170;2022-09-02T07:53:54;2.35;;;0.95;;
46090;SDS011;31826;53.572;10.170;2022-09-02T07:56:20;0.70;;;0.70;;
46090;SDS011;31826;53.572;10.170;2022-09-02T07:58:46;1.10;;;0.93;;
46090;SDS011;31826;53.572;10.170;2022-09-02T08:01:12;1.13;;;0.90;;
46090;SDS011;31826;53.572;10.170;2022-09-02T08:03:39;1.63;;;0.90;;
46090;SDS011;31826;53.572;10.170;2022-09-02T08:06:06;1.73;;;0.90;;
46090;SDS011;31826;53.572;10.170;2022-09-02T08:08:32;2.50;;;1.00;;
46090;SDS011;31826;53.572;10.170;2022-09-02T08:10:58;1.73;;;0.83;;
46090;SDS011;31826;53.572;10.170;2022-09-02T08:13:25;1.77;;;0.80;;
46090;SDS011;31826;53.572;10.170;2022-09-02T08:15:51;1.23;;;0.80;;
46090;SDS011;31826;53.572;10.170;2022-09-02T08:18:17;1.00;;;0.80;;
46090;SDS011;31826;53.572;10.170;2022-09-02T08:20:43;1.05;;;0.85;;
46090;SDS011;31826;53.572;10.170;2022-09-02T08:23:08;1.00;;;0.70;;
46090;SDS011;31826;53.572;10.170;2022-09-02T08:25:35;1.63;;;0.80;;
46090;SDS011;31826;53.572;10.170;2022-09-02T08:28:01;1.08;;;0.77;;
46090;SDS011;31826;53.572;10.170;2022-09-02T08:30:28;1.50;;;0.80;;
46090;SDS011;31826;53.572;10.170;2022-09-02T08:32:54;2.07;;;1.00;;
46090;SDS011;31826;53.572;10.170;2022-09-02T08:35:20;1.48;;;0.98;;
46090;SDS011;31826;53.572;10.170;2022-09-02T08:37:46;0.73;;;0.73;;
46090;SDS011;31826;53.572;10.170;2022-09-02T08:40:13;1.38;;;0.90;;
46090;SDS011;31826;53.572;10.170;2022-09-02T08:42:46;1.85;;;1.00;;
46090;SDS011;31826;53.572;10.170;2022-09-02T08:48:10;0.80;;;0.70;;
46090;SDS011;31826;53.572;10.170;2022-09-02T08:50:41;0.90;;;0.85;;
46090;SDS011;31826;53.572;10.170;2022-09-02T08:53:21;0.80;;;0.80;;
46090;SDS011;31826;53.572;10.170;2022-09-02T08:55:56;1.90;;;0.90;;
46090;SDS011;31826;53.572;10.170;2022-09-02T08:58:26;1.38;;;0.98;;
46090;SDS011;31826;53.572;10.170;2022-09-02T09:01:03;3.47;;;0.97;;
46090;SDS011;31826;53.572;10.170;2022-09-02T09:06:27;1.25;;;0.90;;
46090;SDS011;31826;53.572;10.170;2022-09-02T09:09:03;1.48;;;0.90;;
46090;SDS011;31826;53.572;10.170;2022-09-02T09:12:00;1.48;;;1.10;;
46090;SDS011;31826;53.572;10.170;2022-09-02T09:17:37;0.82;;;0.70;;
46090;SDS011;31826;53.572;10.170;2022-09-02T09:20:31;3.08;;;0.82;;
46090;SDS011;31826;53.572;10.170;2022-09-02T09:22:59;0.98;;;0.77;;
46090;SDS011;31826;53.572;10.170;2022-09-02T09:25:30;2.10;;;0.85;;
46090;SDS011;31826;53.572;10.170;2022-09-02T09:27:59;0.90;;;0.80;;
46090;SDS011;31826;53.572;10.170;2022-09-02T09:30:26;1.05;;;0.80;;
46090;SDS011;31826;53.572;10.170;2022-09-02T09:32:57;3.45;;;1.00;;
46090;SDS011;31826;53.572;10.170;2022-09-02T09:35:24;1.70;;;0.80;;
46090;SDS011;31826;53.572;10.170;2022-09-02T09:37:52;1.90;;;0.80;;
46090;SDS011;31826;53.572;10.170;2022-09-02T09:42:49;1.15;;;0.80;;
46090;SDS011;31826;53.572;10.170;2022-09-02T09:45:28;1.33;;;0.88;;
46090;SDS011;31826;53.572;10.170;2022-09-02T09:48:06;1.00;;;0.90;;
46090;SDS011;31826;53.572;10.170;2022-09-02T09:50:39;1.00;;;0.90;;
46090;SDS011;31826;53.572;10.170;2022-09-02T09:53:18;1.90;;;1.30;;
46090;SDS011;31826;53.572;10.170;2022-09-02T09:55:52;1.23;;;0.70;;
46090;SDS011;31826;53.572;10.170;2022-09-02T09:58:20;0.80;;;0.80;;
46090;SDS011;31826;53.572;10.170;2022-09-02T10:00:51;0.90;;;0.90;;
46090;SDS011;31826;53.572;10.170;2022-09-02T10:03:25;2.97;;;0.90;;
46090;SDS011;31826;53.572;10.170;2022-09-02T10:05:52;1.05;;;0.80;;
46090;SDS011;31826;53.572;10.170;2022-09-02T10:08:22;1.02;;;0.80;;
46090;SDS011;31826;53.572;10.170;2022-09-02T10:10:56;1.15;;;0.80;;
46090;SDS011;31826;53.572;10.170;2022-09-02T10:13:34;1.50;;;0.70;;
46090;SDS011;31826;53.572;10.170;2022-09-02T10:18:50;1.38;;;0.88;;
46090;SDS011;31826;53.572;10.170;2022-09-02T10:24:11;1.10;;;0.70;;
46090;SDS011;31826;53.572;10.170;2022-09-02T10:26:53;1.50;;;0.80;;
46090;SDS011;31826;53.572;10.170;2022-09-02T10:37:38;1.33;;;0.90;;
46090;SDS011;31826;53.572;10.170;2022-09-02T10:40:18;1.90;;;0.88;;
46090;SDS011;31826;53.572;10.170;2022-09-02T10:43:05;1.95;;;0.80;;
46090;SDS011;31826;53.572;10.170;2022-09-02T10:45:40;1.38;;;0.90;;
46090;SDS011;31826;53.572;10.170;2022-09-02T10:51:05;1.60;;;0.80;;
46090;SDS011;31826;53.572;10.170;2022-09-02T10:56:33;0.95;;;0.80;;
46090;SDS011;31826;53.572;10.170;2022-09-02T10:59:13;1.70;;;0.82;;
46090;SDS011;31826;53.572;10.170;2022-09-02T11:01:46;1.00;;;0.73;;
46090;SDS011;31826;53.572;10.170;2022-09-02T11:04:18;2.17;;;0.70;;
46090;SDS011;31826;53.572;10.170;2022-09-02T11:06:54;1.60;;;0.80;;
46090;SDS011;31826;53.572;10.170;2022-09-02T11:12:17;1.65;;;1.00;;
46090;SDS011;31826;53.572;10.170;2022-09-02T11:20:34;1.30;;;0.90;;
46090;SDS011;31826;53.572;10.170;2022-09-02T11:26:15;3.58;;;0.90;;
46090;SDS011;31826;53.572;10.170;2022-09-02T11:28:54;1.30;;;0.93;;
46090;SDS011;31826;53.572;10.170;2022-09-02T11:36:26;0.70;;;0.70;;
46090;SDS011;31826;53.572;10.170;2022-09-02T11:41:33;1.45;;;1.17;;
46090;SDS011;31826;53.572;10.170;2022-09-02T11:44:22;1.20;;;0.80;;
46090;SDS011;31826;53.572;10.170;2022-09-02T11:52:44;1.73;;;1.00;;
46090;SDS011;31826;53.572;10.170;2022-09-02T11:55:20;1.48;;;0.70;;
46090;SDS011;31826;53.572;10.170;2022-09-02T11:57:53;1.52;;;0.73;;
46090;SDS011;31826;53.572;10.170;2022-09-02T12:00:26;1.23;;;0.80;;
46090;SDS011;31826;53.572;10.170;2022-09-02T12:07:58;0.80;;;0.80;;
46090;SDS011;31826;53.572;10.170;2022-09-02T12:13:42;1.55;;;0.70;;
46090;SDS011;31826;53.572;10.170;2022-09-02T12:21:21;2.42;;;0.98;;
46090;SDS011;31826;53.572;10.170;2022-09-02T12:26:20;1.25;;;0.80;;
46090;SDS011;31826;53.572;10.170;2022-09-02T12:28:47;1.35;;;0.70;;
46090;SDS011;31826;53.572;10.170;2022-09-02T12:31:15;0.73;;;0.60;;
46090;SDS011;31826;53.572;10.170;2022-09-02T12:36:53;1.85;;;0.70;;
46090;SDS011;31826;53.572;10.170;2022-09-02T12:47:28;1.95;;;0.80;;
46090;SDS011;31826;53.572;10.170;2022-09-02T12:50:08;0.73;;;0.60;;
46090;SDS011;31826;53.572;10.170;2022-09-02T12:52:48;1.05;;;0.80;;
46090;SDS011;31826;53.572;10.170;2022-09-02T12:55:26;2.27;;;0.87;;
46090;SDS011;31826;53.572;10.170;2022-09-02T12:58:03;2.50;;;0.90;;
46090;SDS011;31826;53.572;10.170;2022-09-02T13:00:50;3.47;;;1.17;;
46090;SDS011;31826;53.572;10.170;2022-09-02T13:08:38;1.30;;;0.80;;
46090;SDS011;31826;53.572;10.170;2022-09-02T13:27:40;1.52;;;0.70;;
46090;SDS011;31826;53.572;10.170;2022-09-02T13:30:16;1.00;;;0.75;;
46090;SDS011;31826;53.572;10.170;2022-09-02T13:32:53;2.20;;;0.90;;
46090;SDS011;31826;53.572;10.170;2022-09-02T13:35:35;1.30;;;0.80;;
46090;SDS011;31826;53.572;10.170;2022-09-02T13:38:02;0.98;;;0.80;;
46090;SDS011;31826;53.572;10.170;2022-09-02T13:40:30;1.38;;;0.75;;
46090;SDS011;31826;53.572;10.170;2022-09-02T13:43:02;1.00;;;0.60;;
46090;SDS011;31826;53.572;10.170;2022-09-02T13:45:37;1.30;;;0.80;;
46090;SDS011;31826;53.572;10.170;2022-09-02T13:48:37;0.97;;;0.80;;
46090;SDS011;31826;53.572;10.170;2022-09-02T13:50:58;1.90;;;0.70;;
46090;SDS011;31826;53.572;10.170;2022-09-02T13:53:36;1.85;;;1.00;;
46090;SDS011;31826;53.572;10.170;2022-09-02T13:56:05;1.77;;;0.85;;
46090;SDS011;31826;53.572;10.170;2022-09-02T13:58:52;1.40;;;0.60;;
46090;SDS011;31826;53.572;10.170;2022-09-02T14:01:28;1.08;;;0.80;;
46090;SDS011;31826;53.572;10.170;2022-09-02T14:03:57;3.20;;;1.00;;
46090;SDS011;31826;53.572;10.170;2022-09-02T14:06:32;1.38;;;0.90;;
46090;SDS011;31826;53.572;10.170;2022-09-02T14:09:01;1.60;;;0.80;;
46090;SDS011;31826;53.572;10.170;2022-09-02T14:11:35;3.95;;;1.00;;
46090;SDS011;31826;53.572;10.170;2022-09-02T14:14:05;1.77;;;0.98;;
46090;SDS011;31826;53.572;10.170;2022-09-02T14:16:33;1.90;;;0.80;;
46090;SDS011;31826;53.572;10.170;2022-09-02T14:21:33;0.70;;;0.70;;
46090;SDS011;31826;53.572;10.170;2022-09-02T14:24:00;1.38;;;0.80;;
46090;SDS011;31826;53.572;10.170;2022-09-02T14:26:36;1.00;;;0.77;;
46090;SDS011;31826;53.572;10.170;2022-09-02T14:29:06;2.08;;;0.98;;
46090;SDS011;31826;53.572;10.170;2022-09-02T14:31:35;1.33;;;0.93;;
46090;SDS011;31826;53.572;10.170;2022-09-02T14:34:01;2.70;;;1.00;;
46090;SDS011;31826;53.572;10.170;2022-09-02T14:36:39;1.67;;;1.10;;
46090;SDS011;31826;53.572;10.170;2022-09-02T14:39:11;0.90;;;0.90;;
46090;SDS011;31826;53.572;10.170;2022-09-02T14:41:46;0.90;;;0.80;;
46090;SDS011;31826;53.572;10.170;2022-09-02T14:46:56;1.35;;;1.00;;
46090;SDS011;31826;53.572;10.170;2022-09-02T14:49:30;0.93;;;0.80;;
46090;SDS011;31826;53.572;10.170;2022-09-02T14:52:24;1.23;;;0.93;;
46090;SDS011;31826;53.572;10.170;2022-09-02T14:54:54;2.50;;;1.27;;
46090;SDS011;31826;53.572;10.170;2022-09-02T14:57:22;1.13;;;0.80;;
46090;SDS011;31826;53.572;10.170;2022-09-02T14:59:56;4.22;;;0.82;;
46090;SDS011;31826;53.572;10.170;2022-09-02T15:04:52;0.70;;;0.70;;
46090;SDS011;31826;53.572;10.170;2022-09-02T15:07:19;1.60;;;1.10;;
46090;SDS011;31826;53.572;10.170;2022-09-02T15:09:45;1.60;;;0.88;;
46090;SDS011;31826;53.572;10.170;2022-09-02T15:12:15;2.50;;;1.05;;
46090;SDS011;31826;53.572;10.170;2022-09-02T15:14:43;1.58;;;0.80;;
46090;SDS011;31826;53.572;10.170;2022-09-02T15:17:11;1.15;;;0.65;;
46090;SDS011;31826;53.572;10.170;2022-09-02T15:19:39;1.42;;;0.90;;
46090;SDS011;31826;53.572;10.170;2022-09-02T15:22:05;1.98;;;1.08;;
46090;SDS011;31826;53.572;10.170;2022-09-02T15:24:31;3.55;;;1.10;;
46090;SDS011;31826;53.572;10.170;2022-09-02T15:26:57;1.43;;;0.90;;
46090;SDS011;31826;53.572;10.170;2022-09-02T15:29:23;3.58;;;0.93;;
46090;SDS011;31826;53.572;10.170;2022-09-02T15:31:52;2.00;;;0.90;;
46090;SDS011;31826;53.572;10.170;2022-09-02T15:34:21;0.95;;;0.70;;
46090;SDS011;31826;53.572;10.170;2022-09-02T15:36:47;1.17;;;0.88;;
46090;SDS011;31826;53.572;10.170;2022-09-02T15:39:13;2.20;;;0.80;;
46090;SDS011;31826;53.572;10.170;2022-09-02T15:41:41;2.07;;;1.00;;
46090;SDS011;31826;53.572;10.170;2022-09-02T15:44:08;1.10;;;0.80;;
46090;SDS011;31826;53.572;10.170;2022-09-02T15:46:34;2.03;;;0.80;;
46090;SDS011;31826;53.572;10.170;2022-09-02T15:49:05;0.95;;;0.85;;
46090;SDS011;31826;53.572;10.170;2022-09-02T15:51:33;1.42;;;0.70;;
46090;SDS011;31826;53.572;10.170;2022-09-02T15:54:00;1.77;;;0.75;;
46090;SDS011;31826;53.572;10.170;2022-09-02T15:56:34;1.35;;;0.80;;
46090;SDS011;31826;53.572;10.170;2022-09-02T15:59:05;1.27;;;0.77;;
46090;SDS011;31826;53.572;10.170;2022-09-02T16:01:45;1.88;;;0.82;;
46090;SDS011;31826;53.572;10.170;2022-09-02T16:04:12;1.30;;;0.90;;
46090;SDS011;31826;53.572;10.170;2022-09-02T16:06:39;2.13;;;0.93;;
46090;SDS011;31826;53.572;10.170;2022-09-02T16:09:09;1.02;;;0.73;;
46090;SDS011;31826;53.572;10.170;2022-09-02T16:11:36;1.20;;;0.85;;
46090;SDS011;31826;53.572;10.170;2022-09-02T16:14:03;1.90;;;0.70;;
46090;SDS011;31826;53.572;10.170;2022-09-02T16:16:30;1.55;;;0.90;;
46090;SDS011;31826;53.572;10.170;2022-09-02T16:18:56;1.65;;;0.90;;
46090;SDS011;31826;53.572;10.170;2022-09-02T16:21:22;0.90;;;0.90;;
46090;SDS011;31826;53.572;10.170;2022-09-02T16:23:48;2.58;;;0.85;;
46090;SDS011;31826;53.572;10.170;2022-09-02T16:26:24;1.70;;;0.90;;
46090;SDS011;31826;53.572;10.170;2022-09-02T16:28:53;1.38;;;0.90;;
46090;SDS011;31826;53.572;10.170;2022-09-02T16:31:20;0.88;;;0.70;;
46090;SDS011;31826;53.572;10.170;2022-09-02T16:34:01;1.02;;;0.70;;
46090;SDS011;31826;53.572;10.170;2022-09-02T16:36:42;0.98;;;0.80;;
46090;SDS011;31826;53.572;10.170;2022-09-02T16:39:10;2.00;;;0.70;;
46090;SDS011;31826;53.572;10.170;2022-09-02T16:41:44;1.40;;;0.70;;
46090;SDS011;31826;53.572;10.170;2022-09-02T16:44:12;2.17;;;1.23;;